Louis Cristal — 9HA2978 — position and weather

sailwx.info

Track history (hours):
 
Tides and Currents Weather Stations Pressure Air Temp Water Temp Dewpoint Dewpoint Depression Visibility Wind Speed Wind Dir Waves Ship Positions

Louis Cristal

Last reported at 2014-Dec-05 06:19 UTC. Time now 2014-Dec-21 21:34 UTC.
Position N 35°53' W 005°46'.
Warning: this ship's position is 16 days out of date.

Length 162 m; draft 6 m.

Type: Passenger vessel. MMSI: 229001000.

Date/timePositionNaut miles runAvg speedWind from/ knotsBaromVisibWave heightAir tempDewpointWater temp
2014-Dec-05 06:19N 35°53' W 005°46'1013.4
2014-Dec-05 05:33N 35°58' W 005°35'1212.4
2014-Dec-05 04:33N 36°01' W 005°21'21612.0
2014-Dec-04 10:31N 37°10' W 001°06'1718.2
2014-Dec-04 09:34N 37°22' W 000°50'1917.8
2014-Dec-04 08:31N 37°35' W 000°33'1616.2
2014-Dec-04 07:33N 37°48' W 000°21'13315.7
2014-Dec-03 23:03N 39°42' E 001°06'815.7
2014-Dec-03 22:33N 39°49' E 001°11'1615.6
2014-Dec-03 21:33N 40°03' E 001°20'1515.2
2014-Dec-03 20:33N 40°17' E 001°28'1514.6
2014-Dec-03 19:33N 40°30' E 001°37'1414.2
2014-Dec-03 18:33N 40°42' E 001°46'1514.3
2014-Dec-03 17:32N 40°55' E 001°56'1515.4
2014-Dec-03 16:32N 41°08' E 002°05'150 6.8
2014-Dec-02 18:27N 43°00' E 004°20'1415.2
2014-Dec-02 17:33N 43°07' E 004°36'1615.9
2014-Dec-02 16:33N 43°14' E 004°55'1514.7
2014-Dec-02 15:33N 43°19' E 005°14'5 4.1
2014-Dec-02 14:25N 43°21' E 005°20'0 0.0
2014-Dec-02 13:25N 43°21' E 005°20'0 0.0
2014-Dec-02 12:31N 43°21' E 005°20'0 0.0
2014-Dec-02 11:19N 43°21' E 005°20'0 0.0
2014-Dec-02 10:31N 43°21' E 005°20'0 0.0
2014-Dec-02 09:33N 43°21' E 005°20'0 0.0
2014-Dec-02 08:33N 43°21' E 005°20'0 0.0
2014-Dec-02 07:33N 43°21' E 005°20'1 0.7
2014-Dec-02 06:33N 43°21' E 005°19'10 9.6
2014-Dec-02 05:33N 43°11' E 005°18'1313.0
2014-Dec-02 04:33N 43°02' E 005°30'1414.4
2014-Dec-02 03:33N 42°54' E 005°46'1615.5
2014-Dec-02 02:33N 42°45' E 006°04'1616.1
2014-Dec-02 01:33N 42°37' E 006°23'16811.9
2014-Dec-01 11:26N 41°14' E 009°39'1112.1
2014-Dec-01 10:33N 41°09' E 009°51'19612.3
2014-Nov-30 18:33N 39°23' E 013°28'1312.9
2014-Nov-30 17:33N 39°16' E 013°42'9213.2
2014-Nov-30 10:33N 38°27' E 015°22'1413.8
2014-Nov-30 09:34N 38°19' E 015°37'10 9.5
2014-Nov-30 08:32N 38°10' E 015°37'38410.1
2014-Nov-28 18:23N 37°31' E 023°41'1012.2
2014-Nov-28 17:33N 37°41' E 023°41'1514.7
2014-Nov-28 16:33N 37°55' E 023°37'2 1.7
2014-Nov-28 15:31N 37°56' E 023°38'0 0.0
2014-Nov-28 14:31N 37°56' E 023°38'0 0.0
2014-Nov-28 13:31N 37°56' E 023°38'0 0.0
2014-Nov-28 12:31N 37°56' E 023°38'0 0.0
2014-Nov-28 11:31N 37°56' E 023°38'0 0.0
2014-Nov-28 10:31N 37°56' E 023°38'0 0.0
2014-Nov-28 09:31N 37°56' E 023°38'0 0.0
2014-Nov-28 08:19N 37°56' E 023°38'0 0.0
2014-Nov-28 07:31N 37°56' E 023°38'0 0.0
2014-Nov-28 06:31N 37°56' E 023°38'0 0.0
2014-Nov-28 05:31N 37°56' E 023°38'0 0.0
2014-Nov-28 04:31N 37°56' E 023°38'0 0.0
2014-Nov-28 03:31N 37°56' E 023°38'0 0.0
2014-Nov-28 02:31N 37°56' E 023°38'0 0.0
2014-Nov-28 01:31N 37°56' E 023°38'0 0.0
2014-Nov-28 00:31N 37°56' E 023°38'0 0.0
2014-Nov-27 23:31N 37°56' E 023°38'0 0.0
2014-Nov-27 22:31N 37°56' E 023°38'0 0.0
2014-Nov-27 21:31N 37°56' E 023°38'0 0.0
2014-Nov-27 20:31N 37°56' E 023°38'0 0.0
2014-Nov-27 19:31N 37°56' E 023°38'0 0.0
2014-Nov-27 18:31N 37°56' E 023°38'0 0.0
2014-Nov-27 17:31N 37°56' E 023°38'0 0.0
2014-Nov-27 16:31N 37°56' E 023°38'0 0.0
2014-Nov-27 15:31N 37°56' E 023°38'0 0.0
2014-Nov-27 14:31N 37°56' E 023°38'0 0.0
2014-Nov-27 13:31N 37°56' E 023°38'0 0.0
2014-Nov-27 12:31N 37°56' E 023°38'0 0.0
2014-Nov-27 11:31N 37°56' E 023°38'0 0.0
2014-Nov-27 10:31N 37°56' E 023°38'0 0.0
2014-Nov-27 09:31N 37°56' E 023°38'0 0.0
2014-Nov-27 08:31N 37°56' E 023°38'0 0.0
2014-Nov-27 07:31N 37°56' E 023°38'0 0.0
2014-Nov-27 06:31N 37°56' E 023°38'0 0.0
2014-Nov-27 05:31N 37°56' E 023°38'0 0.0
2014-Nov-27 04:31N 37°56' E 023°38'0 0.0
2014-Nov-27 03:31N 37°56' E 023°38'0 0.0
2014-Nov-27 02:28N 37°56' E 023°38'0 0.0
2014-Nov-27 01:31N 37°56' E 023°38'0 0.0
2014-Nov-27 00:31N 37°56' E 023°38'0 0.0
2014-Nov-26 23:31N 37°56' E 023°38'0 0.0
2014-Nov-26 22:31N 37°56' E 023°38'0 0.0
2014-Nov-26 21:31N 37°56' E 023°38'0 0.0
2014-Nov-26 20:31N 37°56' E 023°38'0 0.0
2014-Nov-26 19:28N 37°56' E 023°38'0 0.0
2014-Nov-26 18:31N 37°56' E 023°38'0 0.0
2014-Nov-26 17:31N 37°56' E 023°38'0 0.0
2014-Nov-26 16:31N 37°56' E 023°38'0 0.0
2014-Nov-26 15:31N 37°56' E 023°38'0 0.0
2014-Nov-26 14:31N 37°56' E 023°38'0 0.0
2014-Nov-26 13:31N 37°56' E 023°38'0 0.0
2014-Nov-26 12:31N 37°56' E 023°38'0 0.0
2014-Nov-26 11:31N 37°56' E 023°38'0 0.0
2014-Nov-26 10:25N 37°56' E 023°38'0 0.0
2014-Nov-26 09:31N 37°56' E 023°38'0 0.0
2014-Nov-26 08:31N 37°56' E 023°38'0 0.0
2014-Nov-26 07:31N 37°56' E 023°38'0 0.0
2014-Nov-26 06:31N 37°56' E 023°38'0 0.0
2014-Nov-26 05:31N 37°56' E 023°38'0 0.0
2014-Nov-26 04:31N 37°56' E 023°38'0 0.0
2014-Nov-26 03:31N 37°56' E 023°38'0 0.0
2014-Nov-26 02:31N 37°56' E 023°38'0 0.0
2014-Nov-26 01:31N 37°56' E 023°38'0 0.0
2014-Nov-26 00:31N 37°56' E 023°38'0 0.0
2014-Nov-25 23:31N 37°56' E 023°38'0 0.0
2014-Nov-25 22:31N 37°56' E 023°38'0 0.0
2014-Nov-25 21:31N 37°56' E 023°38'0 0.0
2014-Nov-25 20:31N 37°56' E 023°38'0 0.0
2014-Nov-25 19:31N 37°56' E 023°38'0 0.0
2014-Nov-25 18:33N 37°56' E 023°38'0 0.0
2014-Nov-25 17:33N 37°56' E 023°38'0 0.3
2014-Nov-25 16:33N 37°56' E 023°38'1010.0
2014-Nov-25 15:34N 37°46' E 023°37'6 6.1
2014-Nov-25 14:33N 37°40' E 023°36'1 1.0
2014-Nov-25 13:33N 37°39' E 023°37'2 1.7
2014-Nov-25 12:34N 37°39' E 023°34'1616.4
2014-Nov-25 11:33N 37°55' E 023°37'2 1.8
2014-Nov-25 10:28N 37°57' E 023°36'0 0.0
2014-Nov-25 09:31N 37°57' E 023°36'0 0.0
2014-Nov-25 08:31N 37°57' E 023°36'0 0.0
2014-Nov-25 07:28N 37°57' E 023°36'0 0.0
2014-Nov-25 06:31N 37°57' E 023°36'  
Track history (hours):
 
Tides and Currents Weather Stations Pressure Air Temp Water Temp Dewpoint Dewpoint Depression Visibility Wind Speed Wind Dir Waves Ship Positions

Louis Cristal

Last reported at 2014-Dec-05 06:19 UTC. Time now 2014-Dec-21 21:34 UTC.
Position N 35°53' W 005°46'.
Warning: this ship's position is 16 days out of date.

Length 162 m; draft 6 m.

Type: Passenger vessel. MMSI: 229001000.

Date/timePositionNaut miles runAvg speedWind from/ knotsBaromVisibWave heightAir tempDewpointWater temp
2014-Dec-05 06:19N 35°53' W 005°46'1013.4
2014-Dec-05 05:33N 35°58' W 005°35'1212.4
2014-Dec-05 04:33N 36°01' W 005°21'21612.0
2014-Dec-04 10:31N 37°10' W 001°06'1718.2
2014-Dec-04 09:34N 37°22' W 000°50'1917.8
2014-Dec-04 08:31N 37°35' W 000°33'1616.2
2014-Dec-04 07:33N 37°48' W 000°21'13315.7
2014-Dec-03 23:03N 39°42' E 001°06'815.7
2014-Dec-03 22:33N 39°49' E 001°11'1615.6
2014-Dec-03 21:33N 40°03' E 001°20'1515.2
2014-Dec-03 20:33N 40°17' E 001°28'1514.6
2014-Dec-03 19:33N 40°30' E 001°37'1414.2
2014-Dec-03 18:33N 40°42' E 001°46'1514.3
2014-Dec-03 17:32N 40°55' E 001°56'1515.4
2014-Dec-03 16:32N 41°08' E 002°05'150 6.8
2014-Dec-02 18:27N 43°00' E 004°20'1415.2
2014-Dec-02 17:33N 43°07' E 004°36'1615.9
2014-Dec-02 16:33N 43°14' E 004°55'1514.7
2014-Dec-02 15:33N 43°19' E 005°14'5 4.1
2014-Dec-02 14:25N 43°21' E 005°20'0 0.0
2014-Dec-02 13:25N 43°21' E 005°20'0 0.0
2014-Dec-02 12:31N 43°21' E 005°20'0 0.0
2014-Dec-02 11:19N 43°21' E 005°20'0 0.0
2014-Dec-02 10:31N 43°21' E 005°20'0 0.0
2014-Dec-02 09:33N 43°21' E 005°20'0 0.0
2014-Dec-02 08:33N 43°21' E 005°20'0 0.0
2014-Dec-02 07:33N 43°21' E 005°20'1 0.7
2014-Dec-02 06:33N 43°21' E 005°19'10 9.6
2014-Dec-02 05:33N 43°11' E 005°18'1313.0
2014-Dec-02 04:33N 43°02' E 005°30'1414.4
2014-Dec-02 03:33N 42°54' E 005°46'1615.5
2014-Dec-02 02:33N 42°45' E 006°04'1616.1
2014-Dec-02 01:33N 42°37' E 006°23'16811.9
2014-Dec-01 11:26N 41°14' E 009°39'1112.1
2014-Dec-01 10:33N 41°09' E 009°51'19612.3
2014-Nov-30 18:33N 39°23' E 013°28'1312.9
2014-Nov-30 17:33N 39°16' E 013°42'9213.2
2014-Nov-30 10:33N 38°27' E 015°22'1413.8
2014-Nov-30 09:34N 38°19' E 015°37'10 9.5
2014-Nov-30 08:32N 38°10' E 015°37'38410.1
2014-Nov-28 18:23N 37°31' E 023°41'1012.2
2014-Nov-28 17:33N 37°41' E 023°41'1514.7
2014-Nov-28 16:33N 37°55' E 023°37'2 1.7
2014-Nov-28 15:31N 37°56' E 023°38'0 0.0
2014-Nov-28 14:31N 37°56' E 023°38'0 0.0
2014-Nov-28 13:31N 37°56' E 023°38'0 0.0
2014-Nov-28 12:31N 37°56' E 023°38'0 0.0
2014-Nov-28 11:31N 37°56' E 023°38'0 0.0
2014-Nov-28 10:31N 37°56' E 023°38'0 0.0
2014-Nov-28 09:31N 37°56' E 023°38'0 0.0
2014-Nov-28 08:19N 37°56' E 023°38'0 0.0
2014-Nov-28 07:31N 37°56' E 023°38'0 0.0
2014-Nov-28 06:31N 37°56' E 023°38'0 0.0
2014-Nov-28 05:31N 37°56' E 023°38'0 0.0
2014-Nov-28 04:31N 37°56' E 023°38'0 0.0
2014-Nov-28 03:31N 37°56' E 023°38'0 0.0
2014-Nov-28 02:31N 37°56' E 023°38'0 0.0
2014-Nov-28 01:31N 37°56' E 023°38'0 0.0
2014-Nov-28 00:31N 37°56' E 023°38'0 0.0
2014-Nov-27 23:31N 37°56' E 023°38'0 0.0
2014-Nov-27 22:31N 37°56' E 023°38'0 0.0
2014-Nov-27 21:31N 37°56' E 023°38'0 0.0
2014-Nov-27 20:31N 37°56' E 023°38'0 0.0
2014-Nov-27 19:31N 37°56' E 023°38'0 0.0
2014-Nov-27 18:31N 37°56' E 023°38'0 0.0
2014-Nov-27 17:31N 37°56' E 023°38'0 0.0
2014-Nov-27 16:31N 37°56' E 023°38'0 0.0
2014-Nov-27 15:31N 37°56' E 023°38'0 0.0
2014-Nov-27 14:31N 37°56' E 023°38'0 0.0
2014-Nov-27 13:31N 37°56' E 023°38'0 0.0
2014-Nov-27 12:31N 37°56' E 023°38'0 0.0
2014-Nov-27 11:31N 37°56' E 023°38'0 0.0
2014-Nov-27 10:31N 37°56' E 023°38'0 0.0
2014-Nov-27 09:31N 37°56' E 023°38'0 0.0
2014-Nov-27 08:31N 37°56' E 023°38'0 0.0
2014-Nov-27 07:31N 37°56' E 023°38'0 0.0
2014-Nov-27 06:31N 37°56' E 023°38'0 0.0
2014-Nov-27 05:31N 37°56' E 023°38'0 0.0
2014-Nov-27 04:31N 37°56' E 023°38'0 0.0
2014-Nov-27 03:31N 37°56' E 023°38'0 0.0
2014-Nov-27 02:28N 37°56' E 023°38'0 0.0
2014-Nov-27 01:31N 37°56' E 023°38'0 0.0
2014-Nov-27 00:31N 37°56' E 023°38'0 0.0
2014-Nov-26 23:31N 37°56' E 023°38'0 0.0
2014-Nov-26 22:31N 37°56' E 023°38'0 0.0
2014-Nov-26 21:31N 37°56' E 023°38'0 0.0
2014-Nov-26 20:31N 37°56' E 023°38'0 0.0
2014-Nov-26 19:28N 37°56' E 023°38'0 0.0
2014-Nov-26 18:31N 37°56' E 023°38'0 0.0
2014-Nov-26 17:31N 37°56' E 023°38'0 0.0
2014-Nov-26 16:31N 37°56' E 023°38'0 0.0
2014-Nov-26 15:31N 37°56' E 023°38'0 0.0
2014-Nov-26 14:31N 37°56' E 023°38'0 0.0
2014-Nov-26 13:31N 37°56' E 023°38'0 0.0
2014-Nov-26 12:31N 37°56' E 023°38'0 0.0
2014-Nov-26 11:31N 37°56' E 023°38'0 0.0
2014-Nov-26 10:25N 37°56' E 023°38'0 0.0
2014-Nov-26 09:31N 37°56' E 023°38'0 0.0
2014-Nov-26 08:31N 37°56' E 023°38'0 0.0
2014-Nov-26 07:31N 37°56' E 023°38'0 0.0
2014-Nov-26 06:31N 37°56' E 023°38'0 0.0
2014-Nov-26 05:31N 37°56' E 023°38'0 0.0
2014-Nov-26 04:31N 37°56' E 023°38'0 0.0
2014-Nov-26 03:31N 37°56' E 023°38'0 0.0
2014-Nov-26 02:31N 37°56' E 023°38'0 0.0
2014-Nov-26 01:31N 37°56' E 023°38'0 0.0
2014-Nov-26 00:31N 37°56' E 023°38'0 0.0
2014-Nov-25 23:31N 37°56' E 023°38'0 0.0
2014-Nov-25 22:31N 37°56' E 023°38'0 0.0
2014-Nov-25 21:31N 37°56' E 023°38'0 0.0
2014-Nov-25 20:31N 37°56' E 023°38'0 0.0
2014-Nov-25 19:31N 37°56' E 023°38'0 0.0
2014-Nov-25 18:33N 37°56' E 023°38'0 0.0
2014-Nov-25 17:33N 37°56' E 023°38'0 0.3
2014-Nov-25 16:33N 37°56' E 023°38'1010.0
2014-Nov-25 15:34N 37°46' E 023°37'6 6.1
2014-Nov-25 14:33N 37°40' E 023°36'1 1.0
2014-Nov-25 13:33N 37°39' E 023°37'2 1.7
2014-Nov-25 12:34N 37°39' E 023°34'1616.4
2014-Nov-25 11:33N 37°55' E 023°37'2 1.8
2014-Nov-25 10:28N 37°57' E 023°36'0 0.0
2014-Nov-25 09:31N 37°57' E 023°36'0 0.0
2014-Nov-25 08:31N 37°57' E 023°36'0 0.0
2014-Nov-25 07:28N 37°57' E 023°36'0 0.0
2014-Nov-25 06:31N 37°57' E 023°36'  

Dump ship's entire track history